NCAR-RAP Real-Time Weather Data

Output produced by METARs form (20 February 2019  17:11 UTC)
found at http://weather.rap.ucar.edu/surface/
 
RJSY 201200Z 26016KT 9999 -SHRA FEW010 SCT015 BKN025 06/03 Q1014
RJSY 201100Z 28018KT 9999 -SHRA FEW009 SCT015 BKN020 05/03 Q1014
RJSY 201000Z 26013KT 9999 -SHRA FEW015 SCT025 BKN035 07/03 Q1014
RJSY 200900Z 26015KT 9999 FEW015 SCT020 BKN040 07/03 Q1014
RJSY 200800Z 27019KT 9999 VCSH FEW015 SCT030 BKN040 07/04 Q1013
RJSY 200700Z 25016KT 9999 FEW010 SCT015 BKN025 08/05 Q1013
RJSY 200600Z 27017KT 9999 FEW010 SCT020 BKN035 08/05 Q1012
RJSY 200500Z 26014KT 9999 -SHRA FEW010 SCT020 BKN030 09/07 Q1012
RJSY 200400Z 25013KT 9999 VCSH FEW005 BKN012 BKN020 10/08 Q1012
RJSY 200300Z 27010KT 9999 -SHRA FEW005 SCT008 BKN070 09/09 Q1013
RJSY 200200Z 26009KT 9999 -SHRA FEW005 SCT015 BKN030 10/08 Q1013
RJSY 200100Z 27011KT 9999 FEW005 SCT015 BKN040 10/09 Q1013
RJSY 200000Z 25016KT 9999 -SHRA FEW003 SCT008 BKN010 10/09 Q1012
RJSY 192332Z 25010KT 9999 VCSH FEW002 BKN006 BKN008 10/09 Q1012 RMK 1ST002 5ST006 7ST008 A2991
RJSY 192300Z 26007KT 9999 VCSH FEW002 SCT005 BKN010 10/09 Q1012
RJSY 192200Z 24013KT 9999 -SHRA PRFG FEW001 SCT006 BKN007 09/09 Q1012
RJSY 191200Z 10010KT 9999 -RA FEW020 BKN035 BKN045 05/04 Q1011
RJSY 191100Z 09010KT 9999 -RA FEW020 SCT030 BKN040 05/03 Q1011
RJSY 191000Z 07010KT 9999 -RA FEW030 SCT050 BKN070 05/03 Q1012
RJSY 190900Z 08009KT 9999 -RA FEW030 SCT050 OVC080 05/03 Q1014
RJSY 190800Z 08007KT 9999 -RA FEW025 SCT035 BKN050 06/03 Q1016
RJSY 190700Z 11004KT 080V140 9999 -RA FEW030 SCT040 BKN050 07/02 Q1017
RJSY 190600Z 10004KT 9999 -RA FEW040 SCT050 BKN070 08/01 Q1018
RJSY 190500Z 11007KT 9999 FEW050 BKN080 08/M00 Q1018
RJSY 190400Z 09009KT 9999 FEW060 BKN090 07/00 Q1019
RJSY 190300Z 09010KT 9999 FEW060 BKN100 07/00 Q1020
RJSY 190200Z 09010KT CAVOK 07/M00 Q1022
RJSY 190100Z 09009KT 9999 FEW080 BKN150 05/00 Q1022
RJSY 190000Z 13005KT CAVOK 04/00 Q1024
RJSY 182300Z 12007KT CAVOK 03/M01 Q1025
RJSY 182200Z 09007KT CAVOK 01/M00 Q1024
RJSY 181200Z 14002KT 9999 SCT030 BKN/// 04/M01 Q1026
RJSY 181100Z 24004KT 150V280 9999 FEW030 BKN035 05/M00 Q1026
RJSY 181000Z 27007KT 9999 FEW030 BKN035 06/M00 Q1026
RJSY 180900Z 28007KT 250V320 9999 FEW035 06/M01 Q1026
RJSY 180800Z 27009KT 9999 FEW035 06/M01 Q1025
RJSY 180700Z 28011KT 9999 SCT040 07/M02 Q1025
RJSY 180600Z 28013KT 9999 BKN040 08/M02 Q1025